Time;durP1;ratioP1;P1;durP2;ratioP2;P2;SDS_P1;SDS_P2;PMS_P1;PMS_P2;Temp;Humidity;BMP_temperature;BMP_pressure;BME280_temperature;BME280_humidity;BME280_pressure;Samples;Min_cycle;Max_cycle;Signal;HPM_P1;HPM_P2
2021/10/19 00:00:53;;;;;;;;;;;;;;;12.18;93.39;101804.91;4898638;29;19927;-56
2021/10/19 00:03:20;;;;;;;;;;;;;;;12.12;94.03;101811.38;4897392;29;19928;-56
2021/10/19 00:05:47;;;;;;;;;;;;;;;12.15;94.07;101808.56;4896936;29;19927;-56
2021/10/19 00:08:14;;;;;;;;;;;;;;;12.12;94.05;101821.94;4895314;29;19931;-56
2021/10/19 00:10:40;;;;;;;;;;;;;;;12.14;93.74;101812.13;4898330;29;19927;-56
2021/10/19 00:13:07;;;;;;;;;;;;;;;12.16;93.74;101815.53;4897625;29;20356;-51
2021/10/19 00:15:34;;;;;;;;;;;;;;;12.19;93.81;101819.78;4894750;29;19929;-52
2021/10/19 00:18:00;;;;;;;;;;;;;;;12.16;94.32;101823.44;4897355;29;19928;-51
2021/10/19 00:20:27;;;;;;;;;;;;;;;12.18;94.46;101824.19;4879367;29;19935;-50
2021/10/19 00:22:54;;;;;;;;;;;;;;;12.15;94.15;101821.75;4895652;29;20288;-50
2021/10/19 00:25:20;;;;;;;;;;;;;;;12.15;94.36;101828.81;4896678;29;19999;-49
2021/10/19 00:27:47;;;;;;;;;;;;;;;12.13;94.11;101828.91;4897283;29;20379;-56
2021/10/19 00:30:14;;;;;;;;;;;;;;;12.14;94.63;101821.84;4895813;29;19928;-50
2021/10/19 00:32:41;;;;;;;;;;;;;;;12.15;94.49;101834.09;4895438;29;20030;-51
2021/10/19 00:35:08;;;;;;;;;;;;;;;12.13;94.89;101828.03;4897087;29;20018;-59
2021/10/19 00:37:34;;;;;;;;;;;;;;;12.13;94.69;101831.53;4897915;29;19979;-57
2021/10/19 00:40:01;;;;;;;;;;;;;;;12.16;95.29;101828.72;4898086;29;19983;-51
2021/10/19 00:42:28;;;;;;;;;;;;;;;12.17;95.96;101826.94;4881027;29;19927;-51
2021/10/19 00:44:55;;;;;;;;;;;;;;;12.14;96.33;101824.47;4898070;29;19979;-49
2021/10/19 00:47:23;;;;;;;;;;;;;;;12.17;96.50;101824.28;4895898;29;20423;-50
2021/10/19 00:49:50;;;;;;;;;;;;;;;12.17;96.59;101813.75;4895420;29;19932;-49
2021/10/19 00:52:17;;;;;;;;;;;;;;;12.15;97.22;101816.47;4879830;29;20318;-58
2021/10/19 00:54:44;;;;;;;;;;;;;;;12.17;97.14;101821.66;4896699;29;19975;-57
2021/10/19 00:57:10;;;;;;;;;;;;;;;12.15;97.35;101807.72;4897803;29;19999;-57
2021/10/19 00:59:42;;;;;;;;;;;;;;;12.14;97.52;101812.13;4897790;29;19934;-58
2021/10/19 01:02:09;;;;;;;;;;;;;;;12.16;97.66;101801.47;4896357;29;19935;-56
2021/10/19 01:04:35;;;;;;;;;;;;;;;12.15;97.91;101798.00;4878628;29;19950;-58
2021/10/19 01:07:02;;;;;;;;;;;;;;;12.14;98.22;101792.84;4897640;29;19931;-57
2021/10/19 01:09:29;;;;;;;;;;;;;;;12.10;98.64;101796.56;4896564;29;19995;-57
2021/10/19 01:11:55;;;;;;;;;;;;;;;12.10;98.93;101789.50;4897671;29;19931;-57
2021/10/19 01:14:22;;;;;;;;;;;;;;;12.08;98.99;101785.25;4896004;29;19947;-57
2021/10/19 01:16:49;;;;;;;;;;;;;;;12.08;99.26;101790.53;4864915;29;19934;-57
2021/10/19 01:19:22;;;;;;;;;;;;;;;12.12;99.13;101789.41;4878268;29;20387;-57
2021/10/19 01:22:08;;;;;;;;;;;;;;;12.10;99.08;101788.66;4894440;29;19928;-58
2021/10/19 01:24:35;;;;;;;;;;;;;;;12.09;99.69;101784.31;4896054;29;19934;-58
2021/10/19 01:27:02;;;;;;;;;;;;;;;12.04;99.85;101773.19;4894702;29;19931;-57
2021/10/19 01:29:28;;;;;;;;;;;;;;;12.04;99.59;101770.53;4896668;29;19928;-58
2021/10/19 01:31:55;;;;;;;;;;;;;;;12.05;99.82;101774.88;4878261;29;19938;-58
2021/10/19 01:34:22;;;;;;;;;;;;;;;12.04;99.80;101768.78;4895405;29;20371;-57
2021/10/19 01:36:49;;;;;;;;;;;;;;;12.06;99.57;101751.06;4896207;29;20388;-57
2021/10/19 01:39:16;;;;;;;;;;;;;;;12.07;99.62;101758.03;4895881;29;20428;-47
2021/10/19 01:41:42;;;;;;;;;;;;;;;12.06;99.75;101760.78;4894532;29;20485;-48
2021/10/19 01:44:09;;;;;;;;;;;;;;;12.05;99.91;101752.00;4896981;29;19934;-58
2021/10/19 01:46:36;;;;;;;;;;;;;;;12.06;100.00;101750.22;4897133;29;19927;-57
2021/10/19 01:49:02;;;;;;;;;;;;;;;12.03;100.00;101750.41;4897331;29;19934;-58
2021/10/19 01:51:29;;;;;;;;;;;;;;;12.11;100.00;101745.56;4897348;29;19927;-58
2021/10/19 01:53:56;;;;;;;;;;;;;;;12.10;100.00;101743.84;4880717;29;19931;-57
2021/10/19 01:56:22;;;;;;;;;;;;;;;12.12;100.00;101732.28;4897122;29;19932;-57
2021/10/19 01:58:49;;;;;;;;;;;;;;;12.11;100.00;101730.56;4894339;29;19927;-58
2021/10/19 02:01:16;;;;;;;;;;;;;;;12.10;100.00;101728.03;4893873;29;19966;-46
2021/10/19 02:03:42;;;;;;;;;;;;;;;12.17;100.00;101734.63;4897915;29;19967;-47
2021/10/19 02:06:09;;;;;;;;;;;;;;;12.14;100.00;101738.28;4884293;29;19928;-47
2021/10/19 02:08:36;;;;;;;;;;;;;;;12.14;100.00;101729.53;4899065;29;19935;-47
2021/10/19 02:11:02;;;;;;;;;;;;;;;12.16;100.00;101733.78;4897658;29;20014;-49
2021/10/19 02:13:29;;;;;;;;;;;;;;;12.18;100.00;101725.78;4896501;29;20379;-49
2021/10/19 02:15:55;;;;;;;;;;;;;;;12.22;100.00;101716.75;4900303;29;20308;-52
2021/10/19 02:18:22;;;;;;;;;;;;;;;12.23;100.00;101715.84;4899204;29;19931;-50
2021/10/19 02:20:49;;;;;;;;;;;;;;;12.24;100.00;101706.13;4899219;29;20396;-51
2021/10/19 02:23:15;;;;;;;;;;;;;;;12.25;100.00;101705.19;4897333;29;19935;-50
2021/10/19 02:25:42;;;;;;;;;;;;;;;12.24;100.00;101701.69;4899760;29;19936;-51
2021/10/19 02:28:09;;;;;;;;;;;;;;;12.24;100.00;101701.69;4883695;29;19955;-53
2021/10/19 02:30:36;;;;;;;;;;;;;;;12.26;100.00;101702.47;4899117;29;19928;-49
2021/10/19 02:33:02;;;;;;;;;;;;;;;12.28;100.00;101697.94;4899137;29;19935;-46
2021/10/19 02:35:29;;;;;;;;;;;;;;;12.37;100.00;101693.91;4899198;29;20323;-50
2021/10/19 02:37:57;;;;;;;;;;;;;;;12.28;100.00;101697.94;4897159;29;20463;-54
2021/10/19 02:40:24;;;;;;;;;;;;;;;12.27;100.00;101690.09;4899358;29;20395;-51
2021/10/19 02:42:51;;;;;;;;;;;;;;;12.34;100.00;101700.22;4898920;29;19934;-52
2021/10/19 02:45:18;;;;;;;;;;;;;;;12.31;100.00;101696.91;4899968;29;19928;-52
2021/10/19 02:47:45;;;;;;;;;;;;;;;12.33;100.00;101693.25;4898924;29;19928;-53
2021/10/19 02:50:12;;;;;;;;;;;;;;;12.34;100.00;101687.03;4883086;29;20366;-49
2021/10/19 02:52:39;;;;;;;;;;;;;;;12.47;100.00;101679.22;4899670;29;19931;-58
2021/10/19 02:55:06;;;;;;;;;;;;;;;12.53;100.00;101683.31;4899475;29;19927;-56
2021/10/19 02:57:32;;;;;;;;;;;;;;;12.47;100.00;101678.38;4882450;29;20272;-57
2021/10/19 02:59:59;;;;;;;;;;;;;;;12.50;100.00;101678.19;4882794;29;20539;-57
2021/10/19 03:02:26;;;;;;;;;;;;;;;12.54;100.00;101679.69;4899673;29;19927;-57
2021/10/19 03:04:53;;;;;;;;;;;;;;;12.47;100.00;101671.31;4899668;29;19931;-58
2021/10/19 03:07:19;;;;;;;;;;;;;;;12.55;100.00;101672.66;4883120;29;19994;-58
2021/10/19 03:09:46;;;;;;;;;;;;;;;12.59;100.00;101661.81;4899898;29;19927;-58
2021/10/19 03:12:13;;;;;;;;;;;;;;;12.67;100.00;101666.63;4898506;29;20375;-58
2021/10/19 03:14:40;;;;;;;;;;;;;;;12.62;100.00;101676.59;4898169;29;19928;-49
2021/10/19 03:17:06;;;;;;;;;;;;;;;12.65;100.00;101669.38;4897738;29;19983;-51
2021/10/19 03:19:33;;;;;;;;;;;;;;;12.70;100.00;101676.16;4896433;29;19934;-57
2021/10/19 03:22:00;;;;;;;;;;;;;;;12.67;100.00;101667.47;4899172;29;20042;-58
2021/10/19 03:24:26;;;;;;;;;;;;;;;12.61;100.00;101662.59;4879607;29;19932;-58
2021/10/19 03:26:53;;;;;;;;;;;;;;;12.68;100.00;101666.53;4896906;29;20003;-57
2021/10/19 03:29:19;;;;;;;;;;;;;;;12.75;100.00;101664.38;4899302;29;19970;-57
2021/10/19 03:31:46;;;;;;;;;;;;;;;12.75;100.00;101660.88;4899212;29;20264;-58
2021/10/19 03:34:13;;;;;;;;;;;;;;;12.79;100.00;101659.75;4899236;29;20414;-58
2021/10/19 03:36:39;;;;;;;;;;;;;;;12.78;100.00;101658.91;4897850;29;20044;-58
2021/10/19 03:39:06;;;;;;;;;;;;;;;12.81;100.00;101657.84;4899138;29;19935;-57
2021/10/19 03:41:33;;;;;;;;;;;;;;;12.80;100.00;101662.31;4899124;29;19931;-57
2021/10/19 03:43:59;;;;;;;;;;;;;;;12.79;100.00;101650.03;4882272;29;19970;-58
2021/10/19 03:46:26;;;;;;;;;;;;;;;12.82;100.00;101643.72;4897699;29;19927;-57
2021/10/19 03:48:55;;;;;;;;;;;;;;;12.81;100.00;101650.78;4897794;29;19955;-58
2021/10/19 03:51:22;;;;;;;;;;;;;;;12.79;100.00;101652.69;4866653;29;19934;-58
2021/10/19 03:53:49;;;;;;;;;;;;;;;12.84;100.00;101653.25;4898619;29;20327;-46
2021/10/19 03:56:15;;;;;;;;;;;;;;;12.76;100.00;101644.09;4895072;29;20491;-47
2021/10/19 03:58:42;;;;;;;;;;;;;;;12.80;100.00;101645.59;4896281;29;19970;-47
2021/10/19 04:01:08;;;;;;;;;;;;;;;12.90;100.00;101633.53;4898768;29;19975;-46
2021/10/19 04:03:36;;;;;;;;;;;;;;;12.92;100.00;101628.16;4898485;29;20039;-50
2021/10/19 04:06:03;;;;;;;;;;;;;;;12.85;100.00;101622.41;4898749;29;19935;-51
2021/10/19 04:08:29;;;;;;;;;;;;;;;12.90;100.00;101627.38;4881022;29;19927;-58
2021/10/19 04:10:57;;;;;;;;;;;;;;;12.90;100.00;101625.63;4896214;29;19934;-58
2021/10/19 04:13:24;;;;;;;;;;;;;;;13.00;100.00;101632.00;4895077;29;20538;-58
2021/10/19 04:15:51;;;;;;;;;;;;;;;12.96;100.00;101624.38;4882271;29;20282;-47
2021/10/19 04:18:18;;;;;;;;;;;;;;;12.98;100.00;101617.22;4898221;29;19928;-51
2021/10/19 04:20:48;;;;;;;;;;;;;;;12.92;100.00;101617.59;4898323;29;19981;-50
2021/10/19 04:23:14;;;;;;;;;;;;;;;12.93;100.00;101622.78;4898566;29;19927;-58
2021/10/19 04:25:41;;;;;;;;;;;;;;;12.95;100.00;101628.81;4881255;29;19979;-49
2021/10/19 04:28:08;;;;;;;;;;;;;;;12.96;100.00;101619.94;4897977;29;20295;-49
2021/10/19 04:30:36;;;;;;;;;;;;;;;13.04;100.00;101627.38;4898032;29;19931;-52
2021/10/19 04:33:03;;;;;;;;;;;;;;;13.00;100.00;101637.28;4897849;29;19943;-48
2021/10/19 04:35:29;;;;;;;;;;;;;;;12.99;100.00;101640.88;4895037;29;19931;-47
2021/10/19 04:37:56;;;;;;;;;;;;;;;13.00;100.00;101647.84;4895250;29;19975;-47
2021/10/19 04:40:23;;;;;;;;;;;;;;;13.04;100.00;101645.03;4897617;29;19947;-48
2021/10/19 04:42:49;;;;;;;;;;;;;;;13.02;100.00;101645.97;4896257;29;19949;-48
2021/10/19 04:45:16;;;;;;;;;;;;;;;13.04;100.00;101640.59;4896356;29;19927;-48
2021/10/19 04:47:44;;;;;;;;;;;;;;;13.07;100.00;101643.03;4897752;29;20413;-49
2021/10/19 04:50:10;;;;;;;;;;;;;;;13.03;100.00;101644.16;4897313;29;20018;-50
2021/10/19 04:52:37;;;;;;;;;;;;;;;13.05;100.00;101646.69;4895034;29;20009;-52
2021/10/19 04:55:04;;;;;;;;;;;;;;;13.17;100.00;101649.44;4894946;29;20288;-47
2021/10/19 04:57:30;;;;;;;;;;;;;;;13.15;100.00;101651.31;4896574;29;19927;-57
2021/10/19 04:59:57;;;;;;;;;;;;;;;13.14;100.00;101644.34;4897296;29;19955;-57
2021/10/19 05:02:24;;;;;;;;;;;;;;;13.22;100.00;101646.50;4894771;29;19932;-58
2021/10/19 05:04:50;;;;;;;;;;;;;;;13.19;100.00;101647.53;4895823;29;19970;-58
2021/10/19 05:07:17;;;;;;;;;;;;;;;13.15;100.00;101639.91;4897706;29;19927;-57
2021/10/19 05:09:44;;;;;;;;;;;;;;;13.18;100.00;101639.72;4897630;29;19962;-50
2021/10/19 05:12:11;;;;;;;;;;;;;;;13.19;100.00;101641.41;4878356;29;19931;-50
2021/10/19 05:14:37;;;;;;;;;;;;;;;13.16;100.00;101634.53;4891669;29;19927;-47
2021/10/19 05:17:05;;;;;;;;;;;;;;;13.28;100.00;101634.69;4895552;29;20388;-58
2021/10/19 05:19:32;;;;;;;;;;;;;;;13.26;100.00;101634.78;4897099;29;19934;-58
2021/10/19 05:21:59;;;;;;;;;;;;;;;13.21;100.00;101628.09;4897521;29;19975;-58
2021/10/19 05:24:25;;;;;;;;;;;;;;;13.23;100.00;101624.41;4895319;29;19942;-58
2021/10/19 05:26:52;;;;;;;;;;;;;;;13.22;100.00;101635.09;4877934;29;19937;-58
2021/10/19 05:29:19;;;;;;;;;;;;;;;13.25;100.00;101624.31;4880053;29;19927;-49
2021/10/19 05:31:45;;;;;;;;;;;;;;;13.21;100.00;101622.81;4897099;29;19952;-51
2021/10/19 05:34:12;;;;;;;;;;;;;;;13.26;100.00;101621.56;4897208;29;20427;-51
2021/10/19 05:36:39;;;;;;;;;;;;;;;13.33;100.00;101620.25;4895926;29;19935;-46
2021/10/19 05:39:06;;;;;;;;;;;;;;;13.28;100.00;101618.84;4878830;29;19979;-58
2021/10/19 05:41:32;;;;;;;;;;;;;;;13.22;100.00;101619.25;4898977;29;19951;-51
2021/10/19 05:43:59;;;;;;;;;;;;;;;13.23;100.00;101605.09;4899916;29;20410;-57
2021/10/19 05:46:25;;;;;;;;;;;;;;;13.25;100.00;101604.06;4900787;29;19927;-58
2021/10/19 05:48:52;;;;;;;;;;;;;;;13.28;100.00;101608.25;4900793;29;19932;-57
2021/10/19 05:51:19;;;;;;;;;;;;;;;13.30;100.00;101607.22;4900014;29;20501;-57
2021/10/19 05:53:45;;;;;;;;;;;;;;;13.31;100.00;101608.94;4884391;29;19927;-57
2021/10/19 05:56:12;;;;;;;;;;;;;;;13.29;100.00;101597.63;4900896;29;20017;-57
2021/10/19 05:58:39;;;;;;;;;;;;;;;13.32;100.00;101593.91;4900693;29;20303;-58
2021/10/19 06:01:06;;;;;;;;;;;;;;;13.39;100.00;101591.75;4900865;29;20375;-57
2021/10/19 06:03:33;;;;;;;;;;;;;;;13.42;100.00;101592.41;4900793;29;19927;-58
2021/10/19 06:06:08;;;;;;;;;;;;;;;13.38;100.00;101587.44;4900863;29;20376;-58
2021/10/19 06:08:34;;;;;;;;;;;;;;;13.37;100.00;101586.56;4900656;29;19987;-50
2021/10/19 06:11:01;;;;;;;;;;;;;;;13.41;100.00;101595.16;4900515;29;19935;-57
2021/10/19 06:13:28;;;;;;;;;;;;;;;13.42;100.00;101587.13;4899457;29;19932;-58
2021/10/19 06:15:55;;;;;;;;;;;;;;;13.33;100.00;101592.97;4899718;29;19934;-58
2021/10/19 06:18:21;;;;;;;;;;;;;;;13.37;100.00;101594.50;4900572;29;19985;-52
2021/10/19 06:20:49;;;;;;;;;;;;;;;13.40;100.00;101601.38;4883596;29;19931;-52
2021/10/19 06:23:16;;;;;;;;;;;;;;;13.33;100.00;101606.19;4883409;29;19938;-47
2021/10/19 06:25:43;;;;;;;;;;;;;;;13.35;100.00;101599.88;4897358;29;19947;-46
2021/10/19 06:28:10;;;;;;;;;;;;;;;13.42;100.00;101594.22;4896711;29;19939;-48
2021/10/19 06:30:36;;;;;;;;;;;;;;;13.40;100.00;101599.56;4899442;29;19931;-48
2021/10/19 06:33:03;;;;;;;;;;;;;;;13.40;100.00;101607.50;4896357;29;19931;-50
2021/10/19 06:35:30;;;;;;;;;;;;;;;13.46;100.00;101601.00;4899247;29;20291;-49
2021/10/19 06:37:56;;;;;;;;;;;;;;;13.46;100.00;101601.00;4900106;29;19951;-53
2021/10/19 06:40:23;;;;;;;;;;;;;;;13.42;100.00;101597.69;4899721;29;19932;-49
2021/10/19 06:42:50;;;;;;;;;;;;;;;13.47;100.00;101595.59;4896840;29;19931;-49
2021/10/19 06:45:17;;;;;;;;;;;;;;;13.45;100.00;101601.94;4897636;29;19928;-58
2021/10/19 06:47:43;;;;;;;;;;;;;;;13.48;100.00;101594.66;4900143;29;20295;-51
2021/10/19 06:50:11;;;;;;;;;;;;;;;13.47;100.00;101597.38;4882108;29;19933;-51
2021/10/19 06:52:37;;;;;;;;;;;;;;;13.48;100.00;101597.31;4898702;29;19927;-58
2021/10/19 06:55:04;;;;;;;;;;;;;;;13.50;100.00;101599.84;4898652;29;19979;-58
2021/10/19 06:57:31;;;;;;;;;;;;;;;13.57;100.00;101598.50;4882952;29;19936;-58
2021/10/19 07:00:04;;;;;;;;;;;;;;;13.55;100.00;101605.66;4899802;29;20375;-58
2021/10/19 07:02:30;;;;;;;;;;;;;;;13.55;100.00;101607.47;4899836;29;19928;-51
2021/10/19 07:04:57;;;;;;;;;;;;;;;13.58;100.00;101609.91;4899793;29;19927;-51
2021/10/19 07:07:24;;;;;;;;;;;;;;;13.59;100.00;101607.16;4880623;29;19927;-46
2021/10/19 07:09:50;;;;;;;;;;;;;;;13.57;100.00;101603.78;4897436;29;19988;-51
2021/10/19 07:12:17;;;;;;;;;;;;;;;13.59;100.00;101604.50;4899670;29;19927;-48
2021/10/19 07:14:44;;;;;;;;;;;;;;;13.58;100.00;101607.25;4897388;29;20311;-49
2021/10/19 07:17:10;;;;;;;;;;;;;;;13.64;100.00;101614.78;4896002;29;19935;-49
2021/10/19 07:19:38;;;;;;;;;;;;;;;13.66;100.00;101621.66;4898704;29;19927;-49
2021/10/19 07:22:05;;;;;;;;;;;;;;;13.68;100.00;101616.28;4899650;29;19928;-58
2021/10/19 07:24:32;;;;;;;;;;;;;;;13.68;100.00;101617.13;4899256;29;19931;-58
2021/10/19 07:26:58;;;;;;;;;;;;;;;13.68;100.00;101611.84;4882257;29;19975;-58
2021/10/19 07:29:25;;;;;;;;;;;;;;;13.72;100.00;101609.00;4899361;29;19931;-58
2021/10/19 07:31:52;;;;;;;;;;;;;;;13.76;100.00;101607.84;4898020;29;19935;-58
2021/10/19 07:34:18;;;;;;;;;;;;;;;13.75;100.00;101614.91;4897923;29;20445;-58
2021/10/19 07:36:45;;;;;;;;;;;;;;;13.82;100.00;101602.13;4899132;29;19935;-58
2021/10/19 07:39:12;;;;;;;;;;;;;;;13.86;100.00;101593.06;4898540;29;19970;-58
2021/10/19 07:41:39;;;;;;;;;;;;;;;13.87;100.00;101594.75;4898536;29;20037;-57
2021/10/19 07:44:08;;;;;;;;;;;;;;;13.91;100.00;101590.13;4898629;29;20368;-57
2021/10/19 07:46:35;;;;;;;;;;;;;;;13.94;100.00;101592.53;4899001;29;19932;-57
2021/10/19 07:49:02;;;;;;;;;;;;;;;13.94;100.00;101595.19;4898811;29;20356;-49
2021/10/19 07:51:29;;;;;;;;;;;;;;;13.99;100.00;101596.56;4898174;29;19979;-48
2021/10/19 07:53:55;;;;;;;;;;;;;;;14.05;100.00;101592.66;4896966;29;19931;-46
2021/10/19 07:56:22;;;;;;;;;;;;;;;14.07;100.00;101597.84;4879956;29;20031;-48
2021/10/19 07:58:49;;;;;;;;;;;;;;;14.03;100.00;101600.69;4898613;29;19927;-48
2021/10/19 08:01:16;;;;;;;;;;;;;;;14.09;100.00;101601.25;4894553;29;19931;-46
2021/10/19 08:03:42;;;;;;;;;;;;;;;14.11;100.00;101601.97;4895907;29;20296;-51
2021/10/19 08:06:09;;;;;;;;;;;;;;;14.17;100.00;101598.91;4897521;29;19927;-51
2021/10/19 08:08:37;;;;;;;;;;;;;;;14.21;100.00;101592.47;4881858;29;19927;-58
2021/10/19 08:11:05;;;;;;;;;;;;;;;14.22;100.00;101595.94;4897507;29;19928;-58
2021/10/19 08:13:32;;;;;;;;;;;;;;;14.26;100.00;101581.56;4893393;29;19987;-58
2021/10/19 08:16:01;;;;;;;;;;;;;;;14.29;100.00;101576.91;4897697;29;19986;-58
2021/10/19 08:18:29;;;;;;;;;;;;;;;14.28;100.00;101577.00;4898177;29;19927;-58
2021/10/19 08:20:56;;;;;;;;;;;;;;;14.28;100.00;101579.66;4898481;29;19931;-58
2021/10/19 08:23:22;;;;;;;;;;;;;;;14.33;100.00;101581.03;4866264;29;19928;-56
2021/10/19 08:25:49;;;;;;;;;;;;;;;14.41;100.00;101580.50;4897934;29;20299;-57
2021/10/19 08:28:20;;;;;;;;;;;;;;;14.39;100.00;101579.75;4897068;29;19934;-57
2021/10/19 08:30:47;;;;;;;;;;;;;;;14.45;100.00;101583.75;4897924;29;19931;-57
2021/10/19 08:33:14;;;;;;;;;;;;;;;14.48;100.00;101579.13;4897012;29;20026;-58
2021/10/19 08:35:41;;;;;;;;;;;;;;;14.51;100.00;101570.94;4897993;29;20500;-57
2021/10/19 08:38:08;;;;;;;;;;;;;;;14.51;100.00;101567.47;4896827;29;20319;-57
2021/10/19 08:40:35;;;;;;;;;;;;;;;14.57;100.00;101572.31;4896693;29;19927;-57
2021/10/19 08:43:01;;;;;;;;;;;;;;;14.55;100.00;101568.94;4897757;29;19983;-57
2021/10/19 08:45:30;;;;;;;;;;;;;;;14.59;100.00;101573.06;4881219;29;19928;-57
2021/10/19 08:47:57;;;;;;;;;;;;;;;14.62;100.00;101572.00;4898167;29;19954;-58
2021/10/19 08:50:24;;;;;;;;;;;;;;;14.65;100.00;101570.00;4897730;29;19931;-58
2021/10/19 08:52:51;;;;;;;;;;;;;;;14.68;100.00;101564.50;4896209;29;20022;-58
2021/10/19 08:55:17;;;;;;;;;;;;;;;14.69;100.00;101568.84;4896285;29;20458;-57
2021/10/19 08:57:44;;;;;;;;;;;;;;;14.76;100.00;101550.72;4880761;29;20312;-57
2021/10/19 09:00:11;;;;;;;;;;;;;;;14.81;100.00;101561.81;4895282;29;20431;-57
2021/10/19 09:02:38;;;;;;;;;;;;;;;14.83;100.00;101562.56;4896128;29;19931;-58
2021/10/19 09:05:07;;;;;;;;;;;;;;;14.85;100.00;101554.50;4896355;29;19927;-57
2021/10/19 09:07:34;;;;;;;;;;;;;;;14.99;100.00;101557.00;4897738;29;20303;-58
2021/10/19 09:10:00;;;;;;;;;;;;;;;15.04;100.00;101556.69;4888819;29;19932;-57
2021/10/19 09:12:27;;;;;;;;;;;;;;;14.98;100.00;101565.06;4888734;29;20419;-58
2021/10/19 09:19:13;;;;;;;;;;;;;;;15.09;100.00;101561.63;4879780;29;19978;-50
2021/10/19 09:21:48;;;;;;;;;;;;;;;15.10;100.00;101564.16;4877155;29;19934;-47
2021/10/19 09:24:18;;;;;;;;;;;;;;;15.14;100.00;101559.50;4877534;29;19935;-47
2021/10/19 09:27:11;;;;;;;;;;;;;;;15.16;100.00;101569.03;4878167;29;19928;-49
2021/10/19 09:29:42;;;;;;;;;;;;;;;15.22;100.00;101575.66;4876088;29;19928;-57
2021/10/19 09:32:09;;;;;;;;;;;;;;;15.21;100.00;101579.28;4878673;29;19928;-57
2021/10/19 09:34:37;;;;;;;;;;;;;;;15.26;100.00;101579.78;4862020;29;19993;-58
2021/10/19 09:37:04;;;;;;;;;;;;;;;15.22;100.00;101578.31;4868967;29;19935;-58
2021/10/19 09:39:32;;;;;;;;;;;;;;;15.24;100.00;101581.69;4877471;29;19970;-58
2021/10/19 09:42:33;;;;;;;;;;;;;;;15.36;100.00;101588.72;4878183;29;19951;-58
2021/10/19 09:45:00;;;;;;;;;;;;;;;15.39;100.00;101582.38;4862179;29;19944;-57
2021/10/19 09:47:29;;;;;;;;;;;;;;;15.34;100.00;101580.06;4887276;29;20401;-57
2021/10/19 09:49:56;;;;;;;;;;;;;;;15.35;100.00;101587.06;4864101;29;20507;-57
2021/10/19 09:52:23;;;;;;;;;;;;;;;15.36;100.00;101587.91;4878433;29;19934;-56
2021/10/19 09:54:53;;;;;;;;;;;;;;;15.41;100.00;101584.94;4862006;29;19974;-57
2021/10/19 09:57:20;;;;;;;;;;;;;;;15.47;100.00;101579.16;4890914;29;19928;-57
2021/10/19 09:59:46;;;;;;;;;;;;;;;15.50;100.00;101577.13;4880782;29;19940;-57
2021/10/19 10:02:15;;;;;;;;;;;;;;;15.48;100.00;101578.22;4879996;29;19934;-57
2021/10/19 10:04:42;;;;;;;;;;;;;;;15.53;100.00;101581.38;4896771;29;19975;-57
2021/10/19 10:07:10;;;;;;;;;;;;;;;15.51;100.00;101583.28;4877991;29;19932;-57
2021/10/19 10:09:37;;;;;;;;;;;;;;;15.57;100.00;101587.25;4861857;29;19932;-57
2021/10/19 10:12:07;;;;;;;;;;;;;;;15.62;100.00;101580.66;4877423;29;19928;-57
2021/10/19 10:14:43;;;;;;;;;;;;;;;15.66;100.00;101586.59;4878465;29;19928;-58
2021/10/19 10:17:10;;;;;;;;;;;;;;;15.66;100.00;101583.94;4877033;29;19928;-57
2021/10/19 10:19:37;;;;;;;;;;;;;;;15.68;100.00;101582.03;4876075;29;19932;-57
2021/10/19 10:22:17;;;;;;;;;;;;;;;15.70;100.00;101583.56;4861407;29;20896;-58
2021/10/19 10:24:44;;;;;;;;;;;;;;;15.65;100.00;101575.16;4897683;29;19928;-58
2021/10/19 10:27:11;;;;;;;;;;;;;;;15.79;100.00;101576.75;4868285;29;19979;-57
2021/10/19 10:29:39;;;;;;;;;;;;;;;15.81;100.00;101581.97;4883263;29;19927;-58
2021/10/19 10:32:06;;;;;;;;;;;;;;;15.85;100.00;101578.94;4897853;29;20281;-58
2021/10/19 10:34:33;;;;;;;;;;;;;;;15.86;100.00;101583.31;4899825;29;20391;-57
2021/10/19 10:37:11;;;;;;;;;;;;;;;15.94;100.00;101582.72;4899544;29;19928;-57
2021/10/19 10:39:43;;;;;;;;;;;;;;;16.00;100.00;101573.44;4898214;29;19933;-57
2021/10/19 10:42:10;;;;;;;;;;;;;;;15.99;100.00;101569.97;4899994;29;20340;-57
2021/10/19 10:44:37;;;;;;;;;;;;;;;15.99;100.00;101564.66;4883341;29;20287;-56
2021/10/19 10:47:04;;;;;;;;;;;;;;;15.97;100.00;101571.88;4900026;29;19931;-57
2021/10/19 10:49:31;;;;;;;;;;;;;;;16.03;100.00;101571.41;4899890;29;20375;-57
2021/10/19 10:52:00;;;;;;;;;;;;;;;16.08;100.00;101570.22;4899948;29;19931;-58
2021/10/19 10:54:26;;;;;;;;;;;;;;;16.11;100.00;101569.97;4883052;29;19931;-58
2021/10/19 10:56:53;;;;;;;;;;;;;;;16.10;100.00;101568.28;4883068;29;19935;-57
2021/10/19 10:59:26;;;;;;;;;;;;;;;16.10;100.00;101566.47;4899725;29;19983;-58
2021/10/19 11:01:58;;;;;;;;;;;;;;;16.16;100.00;101567.81;4900076;29;20387;-58
2021/10/19 11:04:25;;;;;;;;;;;;;;;16.21;100.00;101562.97;4898378;29;20394;-58
2021/10/19 11:06:52;;;;;;;;;;;;;;;16.32;100.00;101563.00;4898317;29;19931;-58
2021/10/19 11:09:19;;;;;;;;;;;;;;;16.27;100.00;101554.53;4899114;29;19935;-58
2021/10/19 11:11:46;;;;;;;;;;;;;;;16.33;100.00;101554.09;4896103;29;19950;-57
2021/10/19 11:14:13;;;;;;;;;;;;;;;16.22;100.00;101551.41;4895077;29;20284;-58
2021/10/19 11:16:42;;;;;;;;;;;;;;;16.25;100.00;101553.81;4899417;29;19931;-57
2021/10/19 11:19:15;;;;;;;;;;;;;;;16.33;100.00;101550.56;4899150;29;19928;-57
2021/10/19 11:21:42;;;;;;;;;;;;;;;16.33;100.00;101548.78;4882184;29;20302;-58
2021/10/19 11:24:09;;;;;;;;;;;;;;;16.37;100.00;101534.28;4899138;29;19935;-56
2021/10/19 11:26:36;;;;;;;;;;;;;;;16.44;100.00;101542.59;4898885;29;20273;-57
2021/10/19 11:29:03;;;;;;;;;;;;;;;16.50;100.00;101534.16;4899193;29;19927;-58
2021/10/19 11:31:30;;;;;;;;;;;;;;;16.58;100.00;101538.00;4899411;29;20392;-58
2021/10/19 11:33:57;;;;;;;;;;;;;;;16.62;100.00;101542.09;4897991;29;19932;-57
2021/10/19 11:36:25;;;;;;;;;;;;;;;16.66;100.00;101540.88;4898645;29;19927;-57
2021/10/19 11:38:53;;;;;;;;;;;;;;;16.68;100.00;101537.16;4898987;29;20027;-57
2021/10/19 11:41:24;;;;;;;;;;;;;;;16.66;100.00;101533.78;4882118;29;19927;-57
2021/10/19 11:43:53;;;;;;;;;;;;;;;16.68;100.00;101539.78;4882307;29;20395;-58
2021/10/19 11:46:21;;;;;;;;;;;;;;;16.71;100.00;101530.75;4899117;29;20265;-57
2021/10/19 11:48:48;;;;;;;;;;;;;;;16.76;100.00;101531.22;4899145;29;19931;-57
2021/10/19 11:51:16;;;;;;;;;;;;;;;16.77;100.00;101530.25;4882364;29;19928;-57
2021/10/19 11:53:43;;;;;;;;;;;;;;;16.76;100.00;101525.09;4897773;29;19927;-57
2021/10/19 11:56:10;;;;;;;;;;;;;;;16.84;100.00;101518.16;4897587;29;19935;-50
2021/10/19 11:58:53;;;;;;;;;;;;;;;16.88;100.00;101516.13;4897670;29;19934;-49
2021/10/19 12:01:20;;;;;;;;;;;;;;;16.93;100.00;101513.09;4898412;29;19935;-50
2021/10/19 12:03:57;;;;;;;;;;;;;;;17.01;100.00;101511.50;4898547;29;19931;-47
2021/10/19 12:06:24;;;;;;;;;;;;;;;16.94;100.00;101504.16;4895810;29;19931;-50
2021/10/19 12:08:51;;;;;;;;;;;;;;;17.00;100.00;101509.84;4878422;29;19939;-58
2021/10/19 12:11:21;;;;;;;;;;;;;;;17.04;100.00;101500.63;4895879;29;19927;-58
2021/10/19 12:13:58;;;;;;;;;;;;;;;17.05;100.00;101497.00;4881470;29;19932;-58
2021/10/19 12:16:26;;;;;;;;;;;;;;;17.11;100.00;101495.66;4898072;29;19927;-58
2021/10/19 12:18:53;;;;;;;;;;;;;;;17.14;100.00;101497.19;4880991;29;20035;-58
2021/10/19 12:21:20;;;;;;;;;;;;;;;17.08;100.00;101498.56;4896600;29;19955;-58
2021/10/19 12:23:55;;;;;;;;;;;;;;;17.12;100.00;101491.19;4898292;29;19963;-56
2021/10/19 12:26:22;;;;;;;;;;;;;;;17.08;100.00;101495.91;4898002;29;19934;-58
2021/10/19 12:28:50;;;;;;;;;;;;;;;17.12;100.00;101496.50;4881606;29;20341;-58
2021/10/19 12:31:17;;;;;;;;;;;;;;;17.09;100.00;101480.81;4898192;29;19927;-58
2021/10/19 12:33:50;;;;;;;;;;;;;;;17.10;100.00;101491.31;4881308;29;19979;-58